createdAt,value
2023-01-09T00:01:13.695Z,1.37
2023-01-09T00:03:41.457Z,2.00
2023-01-09T00:06:09.178Z,1.40
2023-01-09T00:08:38.570Z,1.40
2023-01-09T00:11:06.819Z,1.30
2023-01-09T00:13:34.971Z,1.60
2023-01-09T00:16:02.709Z,1.70
2023-01-09T00:18:30.409Z,1.80
2023-01-09T00:21:00.721Z,1.20
2023-01-09T00:23:28.577Z,1.47
2023-01-09T00:26:04.998Z,1.50
2023-01-09T00:28:33.357Z,1.73
2023-01-09T00:31:02.797Z,1.40
2023-01-09T00:33:32.696Z,1.57
2023-01-09T00:36:00.468Z,1.83
2023-01-09T00:38:28.512Z,1.73
2023-01-09T00:40:57.351Z,1.83
2023-01-09T00:43:32.052Z,1.87
2023-01-09T00:46:01.963Z,1.60
2023-01-09T00:48:29.777Z,1.73
2023-01-09T00:51:00.198Z,2.07
2023-01-09T00:53:32.304Z,1.60
2023-01-09T00:56:03.115Z,1.73
2023-01-09T00:58:33.458Z,1.37
2023-01-09T01:01:01.475Z,1.57
2023-01-09T01:03:29.589Z,1.30
2023-01-09T01:06:14.837Z,1.57
2023-01-09T01:08:42.662Z,1.37
2023-01-09T01:11:12.469Z,1.30
2023-01-09T01:13:42.860Z,1.40
2023-01-09T01:16:12.411Z,1.67
2023-01-09T01:18:40.863Z,1.80
2023-01-09T01:21:09.569Z,1.70
2023-01-09T01:23:38.020Z,1.50
2023-01-09T01:26:06.982Z,1.80
2023-01-09T01:28:34.799Z,1.70
2023-01-09T01:31:03.982Z,1.53
2023-01-09T01:33:32.088Z,2.10
2023-01-09T01:36:04.060Z,2.03
2023-01-09T01:38:31.887Z,1.50
2023-01-09T01:41:00.399Z,1.60
2023-01-09T01:43:28.108Z,1.73
2023-01-09T01:45:56.225Z,2.37
2023-01-09T01:48:29.965Z,2.20
2023-01-09T01:51:00.243Z,2.03
2023-01-09T01:53:32.725Z,2.80
2023-01-09T01:56:06.928Z,2.20
2023-01-09T01:58:37.220Z,2.20
2023-01-09T02:01:05.663Z,2.00
2023-01-09T02:03:35.935Z,2.50
2023-01-09T02:06:05.096Z,2.23
2023-01-09T02:08:33.148Z,2.50
2023-01-09T02:11:02.229Z,2.20
2023-01-09T02:13:30.637Z,2.23
2023-01-09T02:16:11.641Z,3.20
2023-01-09T02:18:48.420Z,2.70
2023-01-09T02:21:27.446Z,2.63
2023-01-09T02:24:11.287Z,3.40
2023-01-09T02:27:31.167Z,3.23
2023-01-09T02:30:23.588Z,3.20
2023-01-09T02:32:59.499Z,3.20
2023-01-09T02:35:49.003Z,3.67
2023-01-09T02:38:28.879Z,2.47
2023-01-09T02:41:03.310Z,2.77
2023-01-09T02:43:33.065Z,3.27
2023-01-09T02:46:02.301Z,3.00
2023-01-09T02:48:31.226Z,2.77
2023-01-09T02:51:11.014Z,2.53
2023-01-09T02:54:03.013Z,2.80
2023-01-09T02:56:45.102Z,2.50
2023-01-09T02:59:21.489Z,2.60
2023-01-09T03:01:58.804Z,2.77
2023-01-09T03:04:39.452Z,3.22
2023-01-09T03:07:14.165Z,3.17
2023-01-09T03:09:43.984Z,3.00
2023-01-09T03:12:16.464Z,2.67
2023-01-09T03:14:48.358Z,2.73
2023-01-09T03:17:22.470Z,2.20
2023-01-09T03:19:51.860Z,2.10
2023-01-09T03:22:19.699Z,1.30
2023-01-09T03:24:47.530Z,1.93
2023-01-09T03:27:15.950Z,1.50
2023-01-09T03:29:43.771Z,1.40
2023-01-09T03:32:11.650Z,1.43
2023-01-09T03:34:40.706Z,1.43
2023-01-09T03:37:08.431Z,1.20
2023-01-09T03:39:36.138Z,1.33
2023-01-09T03:42:03.844Z,1.20
2023-01-09T03:44:31.567Z,1.20
2023-01-09T03:46:59.261Z,1.17
2023-01-09T03:49:26.956Z,1.00
2023-01-09T03:51:55.992Z,1.10
2023-01-09T03:54:23.827Z,1.50
2023-01-09T03:56:51.558Z,1.20
2023-01-09T03:59:19.298Z,1.20
2023-01-09T04:01:47.063Z,1.00
2023-01-09T04:04:14.956Z,1.17
2023-01-09T04:06:42.645Z,1.20
2023-01-09T04:09:11.679Z,0.90
2023-01-09T04:11:39.381Z,1.43
2023-01-09T04:14:07.059Z,1.07
2023-01-09T04:16:34.851Z,0.90
2023-01-09T04:19:02.709Z,1.17
2023-01-09T04:21:30.443Z,0.80
2023-01-09T04:23:58.136Z,0.80
2023-01-09T04:26:27.231Z,1.40
2023-01-09T04:28:55.023Z,1.30
2023-01-09T04:31:22.721Z,1.00
2023-01-09T04:33:50.458Z,0.70
2023-01-09T04:36:18.168Z,1.40
2023-01-09T04:38:45.873Z,1.00
2023-01-09T04:41:33.914Z,1.00
2023-01-09T04:44:02.989Z,0.90
2023-01-09T04:46:30.735Z,1.00
2023-01-09T04:48:58.475Z,1.03
2023-01-09T04:51:26.195Z,1.10
2023-01-09T04:53:53.899Z,1.40
2023-01-09T04:56:21.653Z,1.00
2023-01-09T04:58:49.373Z,1.37
2023-01-09T05:01:18.479Z,0.90
2023-01-09T05:03:46.266Z,1.00
2023-01-09T05:06:14.072Z,1.00
2023-01-09T05:08:41.765Z,1.00
2023-01-09T05:11:09.470Z,0.90
2023-01-09T05:13:37.166Z,1.10
2023-01-09T05:16:05.168Z,1.10
2023-01-09T05:18:34.282Z,1.23
2023-01-09T05:21:02.338Z,1.10
2023-01-09T05:23:30.090Z,1.30
2023-01-09T05:25:57.802Z,1.30
2023-01-09T05:28:25.523Z,1.10
2023-01-09T05:30:53.244Z,1.17
2023-01-09T05:33:21.049Z,1.47
2023-01-09T05:35:50.106Z,1.30
2023-01-09T05:38:17.899Z,1.50
2023-01-09T05:40:45.678Z,1.07
2023-01-09T05:43:13.405Z,1.20
2023-01-09T05:45:41.139Z,1.37
2023-01-09T05:48:08.976Z,1.37
2023-01-09T05:50:36.689Z,1.20
2023-01-09T05:53:06.649Z,1.07
2023-01-09T05:55:34.454Z,1.10
2023-01-09T05:58:02.316Z,1.00
2023-01-09T06:00:30.047Z,1.10
2023-01-09T06:02:57.867Z,1.33
2023-01-09T06:05:25.653Z,1.30
2023-01-09T06:07:53.373Z,1.10
2023-01-09T06:10:22.491Z,1.10
2023-01-09T06:12:51.671Z,1.70
2023-01-09T06:15:20.505Z,1.30
2023-01-09T06:17:48.520Z,1.20
2023-01-09T06:20:16.312Z,1.60
2023-01-09T06:22:44.723Z,1.70
2023-01-09T06:25:12.723Z,1.50
2023-01-09T06:27:41.759Z,1.70
2023-01-09T06:30:10.663Z,1.80
2023-01-09T06:32:38.362Z,1.70
2023-01-09T06:35:06.747Z,1.60
2023-01-09T06:37:34.486Z,1.50
2023-01-09T06:40:02.156Z,1.83
2023-01-09T06:42:29.868Z,1.47
2023-01-09T06:44:58.925Z,1.77
2023-01-09T06:47:26.640Z,1.60
2023-01-09T06:49:54.328Z,1.60
2023-01-09T06:52:22.061Z,1.83
2023-01-09T06:54:49.768Z,2.10
2023-01-09T06:57:17.532Z,2.00
2023-01-09T06:59:45.218Z,1.90
2023-01-09T07:02:19.503Z,1.63
2023-01-09T07:04:47.394Z,2.00
2023-01-09T07:07:15.637Z,2.07
2023-01-09T07:09:43.345Z,1.67
2023-01-09T07:12:11.065Z,1.87
2023-01-09T07:14:38.788Z,1.50
2023-01-09T07:17:06.672Z,2.00
2023-01-09T07:19:35.722Z,1.77
2023-01-09T07:22:03.500Z,2.00
2023-01-09T07:24:31.194Z,2.10
2023-01-09T07:26:59.024Z,1.90
2023-01-09T07:29:26.793Z,1.90
2023-01-09T07:31:54.500Z,2.00
2023-01-09T07:34:22.256Z,2.10
2023-01-09T07:36:51.742Z,1.80
2023-01-09T07:39:19.503Z,1.97
2023-01-09T07:41:47.441Z,1.90
2023-01-09T07:44:15.658Z,2.03
2023-01-09T07:46:43.344Z,1.50
2023-01-09T07:49:11.204Z,2.00
2023-01-09T07:51:42.892Z,1.60
2023-01-09T07:54:12.574Z,1.20
2023-01-09T07:56:40.637Z,1.50
2023-01-09T07:59:08.405Z,1.47
2023-01-09T08:01:36.399Z,1.40
2023-01-09T08:04:04.316Z,1.43
2023-01-09T08:06:32.532Z,1.50
2023-01-09T08:09:00.686Z,1.40
2023-01-09T08:11:29.719Z,1.17
2023-01-09T08:13:57.439Z,1.53
2023-01-09T08:16:25.159Z,1.30
2023-01-09T08:18:52.869Z,1.70
2023-01-09T08:21:20.554Z,1.53
2023-01-09T08:23:48.305Z,1.63
2023-01-09T08:26:16.022Z,1.20
2023-01-09T08:28:45.139Z,1.30
2023-01-09T08:31:12.890Z,1.20
2023-01-09T08:33:40.716Z,1.10
2023-01-09T08:36:09.061Z,1.50
2023-01-09T08:38:36.851Z,1.40
2023-01-09T08:41:24.552Z,1.53
2023-01-09T08:44:11.345Z,1.30
2023-01-09T08:46:56.860Z,1.50
2023-01-09T08:49:24.550Z,1.30
2023-01-09T08:51:52.277Z,1.20
2023-01-09T08:54:19.991Z,1.30
2023-01-09T08:56:47.756Z,1.67
2023-01-09T08:59:17.160Z,1.90
2023-01-09T09:01:44.965Z,1.83
2023-01-09T09:04:12.648Z,1.63
2023-01-09T09:06:40.472Z,1.47
2023-01-09T09:09:08.229Z,1.30
2023-01-09T09:11:36.151Z,1.60
2023-01-09T09:14:25.658Z,1.40
2023-01-09T09:16:55.152Z,1.30
2023-01-09T09:19:23.149Z,1.67
2023-01-09T09:21:50.842Z,1.60
2023-01-09T09:24:18.595Z,1.20
2023-01-09T09:26:46.274Z,1.43
2023-01-09T09:29:14.188Z,1.30
2023-01-09T09:31:41.928Z,1.53
2023-01-09T09:34:12.865Z,1.30
2023-01-09T09:36:40.613Z,2.00
2023-01-09T09:39:09.194Z,1.35
2023-01-09T09:42:26.287Z,1.53
2023-01-09T09:45:08.301Z,1.20
2023-01-09T09:47:45.737Z,1.50
2023-01-09T09:50:29.896Z,1.37
2023-01-09T09:53:03.688Z,1.73
2023-01-09T09:55:34.680Z,1.07
2023-01-09T09:58:05.508Z,1.53
2023-01-09T10:00:33.666Z,1.30
2023-01-09T10:03:04.681Z,1.20
2023-01-09T10:05:36.222Z,1.73
2023-01-09T10:08:15.831Z,1.43
2023-01-09T10:10:48.845Z,1.10
2023-01-09T10:13:37.207Z,1.10
2023-01-09T10:16:13.180Z,1.33
2023-01-09T10:18:50.900Z,1.10
2023-01-09T10:21:23.540Z,1.00
2023-01-09T10:24:13.315Z,1.00
2023-01-09T10:26:47.656Z,1.03
2023-01-09T10:29:42.866Z,1.27
2023-01-09T10:32:27.640Z,0.97
2023-01-09T10:35:06.781Z,0.87
2023-01-09T10:37:39.894Z,1.10
2023-01-09T10:40:19.067Z,1.23
2023-01-09T10:42:51.464Z,1.10
2023-01-09T10:45:23.525Z,1.40
2023-01-09T10:47:51.355Z,1.17
2023-01-09T10:50:24.576Z,1.00
2023-01-09T10:52:55.419Z,1.13
2023-01-09T10:55:33.581Z,1.00
2023-01-09T10:58:05.345Z,1.53
2023-01-09T11:00:33.050Z,1.03
2023-01-09T11:03:00.774Z,1.20
2023-01-09T11:05:32.698Z,0.90
2023-01-09T11:08:07.317Z,0.90
2023-01-09T11:10:47.807Z,0.80
2023-01-09T11:13:20.761Z,1.13
2023-01-09T11:16:01.115Z,1.07
2023-01-09T11:18:28.966Z,1.10
2023-01-09T11:20:56.708Z,2.00
2023-01-09T11:23:28.704Z,1.00
2023-01-09T11:25:58.671Z,1.10
2023-01-09T11:28:26.768Z,1.00
2023-01-09T11:30:56.760Z,0.90
2023-01-09T11:33:27.262Z,0.70
2023-01-09T11:36:05.671Z,1.07
2023-01-09T11:38:48.246Z,1.00
2023-01-09T11:41:19.425Z,1.03
2023-01-09T11:43:49.527Z,1.20
2023-01-09T11:46:35.587Z,1.03
2023-01-09T11:49:04.891Z,1.23
2023-01-09T11:51:34.167Z,1.03
2023-01-09T11:54:27.091Z,1.00
2023-01-09T11:56:55.725Z,1.27
2023-01-09T11:59:27.725Z,1.30
2023-01-09T12:02:25.809Z,1.03
2023-01-09T12:04:57.151Z,1.10
2023-01-09T12:07:41.100Z,1.20
2023-01-09T12:10:30.690Z,1.27
2023-01-09T12:13:08.775Z,1.07
2023-01-09T12:15:44.107Z,1.30
2023-01-09T12:18:25.296Z,1.00
2023-01-09T12:21:08.576Z,0.90
2023-01-09T12:24:01.550Z,1.20
2023-01-09T12:26:33.201Z,1.00
2023-01-09T12:29:19.099Z,1.20
2023-01-09T12:31:59.857Z,0.90
2023-01-09T12:34:42.168Z,1.30
2023-01-09T12:37:30.089Z,0.80
2023-01-09T12:40:07.847Z,1.00
2023-01-09T12:42:48.769Z,1.27
2023-01-09T12:45:39.067Z,1.00
2023-01-09T12:48:16.691Z,0.90
2023-01-09T12:51:20.707Z,1.07
2023-01-09T12:53:56.561Z,1.20
2023-01-09T12:56:30.182Z,1.20
2023-01-09T12:59:05.873Z,1.27
2023-01-09T13:01:38.922Z,0.90
2023-01-09T13:04:14.662Z,1.13
2023-01-09T13:06:50.940Z,1.00
2023-01-09T13:09:25.881Z,1.27
2023-01-09T13:12:01.958Z,0.90
2023-01-09T13:14:48.339Z,0.90
2023-01-09T13:17:22.450Z,1.00
2023-01-09T13:19:50.266Z,0.90
2023-01-09T13:22:19.042Z,1.00
2023-01-09T13:25:06.951Z,1.17
2023-01-09T13:27:39.655Z,1.30
2023-01-09T13:30:21.564Z,0.83
2023-01-09T13:33:01.623Z,1.30
2023-01-09T13:35:29.642Z,1.00
2023-01-09T13:37:57.466Z,1.10
2023-01-09T13:40:30.324Z,1.00
2023-01-09T13:42:58.690Z,1.10
2023-01-09T13:45:29.721Z,0.97
2023-01-09T13:48:34.210Z,0.83
2023-01-09T13:51:37.513Z,0.80
2023-01-09T13:54:05.383Z,1.07
2023-01-09T13:56:33.123Z,1.20
2023-01-09T13:59:03.711Z,1.10
2023-01-09T14:01:43.684Z,1.03
2023-01-09T14:04:54.177Z,1.23
2023-01-09T14:07:24.403Z,1.20
2023-01-09T14:09:56.524Z,1.10
2023-01-09T14:12:24.998Z,1.00
2023-01-09T14:14:56.054Z,1.13
2023-01-09T14:17:31.750Z,1.23
2023-01-09T14:20:02.213Z,1.07
2023-01-09T14:22:42.439Z,1.27
2023-01-09T14:25:23.560Z,1.10
2023-01-09T14:28:08.259Z,1.20
2023-01-09T14:30:38.214Z,0.97
2023-01-09T14:33:27.349Z,1.00
2023-01-09T14:36:04.510Z,1.20
2023-01-09T14:38:35.047Z,1.00
2023-01-09T14:41:09.938Z,1.07
2023-01-09T14:43:49.249Z,1.20
2023-01-09T14:46:19.269Z,1.00
2023-01-09T14:48:59.876Z,1.07
2023-01-09T14:51:30.322Z,1.30
2023-01-09T14:54:00.671Z,1.10
2023-01-09T14:56:30.502Z,1.00
2023-01-09T14:59:06.180Z,1.10
2023-01-09T15:01:36.574Z,1.30
2023-01-09T15:04:11.515Z,1.13
2023-01-09T15:06:43.824Z,1.30
2023-01-09T15:09:29.705Z,0.93
2023-01-09T15:12:03.959Z,1.10
2023-01-09T15:14:34.782Z,1.10
2023-01-09T15:17:04.827Z,0.90
2023-01-09T15:19:34.600Z,0.93
2023-01-09T15:22:04.449Z,1.17
2023-01-09T15:24:34.292Z,1.20
2023-01-09T15:27:05.153Z,1.00
2023-01-09T15:29:32.958Z,0.90
2023-01-09T15:32:06.008Z,1.33
2023-01-09T15:34:35.601Z,1.27
2023-01-09T15:37:03.785Z,1.00
2023-01-09T15:39:36.871Z,1.00
2023-01-09T15:42:22.774Z,1.13
2023-01-09T15:44:53.681Z,0.97
2023-01-09T15:47:27.647Z,1.10
2023-01-09T15:49:58.565Z,1.10
2023-01-09T15:52:27.200Z,1.20
2023-01-09T15:54:54.904Z,1.10
2023-01-09T15:57:36.805Z,1.30
2023-01-09T16:00:24.425Z,1.10
2023-01-09T16:03:10.443Z,1.60
2023-01-09T16:05:43.312Z,1.47
2023-01-09T16:08:25.984Z,1.40
2023-01-09T16:10:55.177Z,1.10
2023-01-09T16:13:25.305Z,1.40
2023-01-09T16:15:53.807Z,1.00
2023-01-09T16:18:24.275Z,1.33
2023-01-09T16:21:06.771Z,1.30
2023-01-09T16:23:36.520Z,1.17
2023-01-09T16:26:06.865Z,1.90
2023-01-09T16:28:34.623Z,1.50
2023-01-09T16:31:08.036Z,2.00
2023-01-09T16:33:36.302Z,1.60
2023-01-09T16:36:06.201Z,1.10
2023-01-09T16:38:34.455Z,1.40
2023-01-09T16:41:21.822Z,1.47
2023-01-09T16:43:50.667Z,1.50
2023-01-09T16:46:21.071Z,1.70
2023-01-09T16:48:49.178Z,1.30
2023-01-09T16:51:21.503Z,1.50
2023-01-09T16:53:49.547Z,1.50
2023-01-09T16:56:21.930Z,1.30
2023-01-09T16:58:50.327Z,1.47
2023-01-09T17:01:18.125Z,1.03
2023-01-09T17:03:47.714Z,1.50
2023-01-09T17:06:20.797Z,1.10
2023-01-09T17:08:48.513Z,1.27
2023-01-09T17:11:21.956Z,1.20
2023-01-09T17:13:50.228Z,1.40
2023-01-09T17:16:19.489Z,1.40
2023-01-09T17:18:47.393Z,1.63
2023-01-09T17:21:21.804Z,1.30
2023-01-09T17:24:10.077Z,1.50
2023-01-09T17:26:56.667Z,1.50
2023-01-09T17:29:24.980Z,1.70
2023-01-09T17:31:52.724Z,2.10
2023-01-09T17:34:20.627Z,1.70
2023-01-09T17:36:49.703Z,1.57
2023-01-09T17:39:18.676Z,1.50
2023-01-09T17:41:46.348Z,1.30
2023-01-09T17:44:14.178Z,1.70
2023-01-09T17:46:43.353Z,1.43
2023-01-09T17:49:16.417Z,1.70
2023-01-09T17:51:44.121Z,1.67
2023-01-09T17:54:13.717Z,2.03
2023-01-09T17:56:44.568Z,1.60
2023-01-09T17:59:12.937Z,1.60
2023-01-09T18:01:41.015Z,1.77
2023-01-09T18:04:09.121Z,1.70
2023-01-09T18:06:37.438Z,1.80
2023-01-09T18:09:06.395Z,1.97
2023-01-09T18:11:35.908Z,1.50
2023-01-09T18:14:03.621Z,2.27
2023-01-09T18:16:31.462Z,2.20
2023-01-09T18:19:00.007Z,1.93
2023-01-09T18:21:29.396Z,2.27
2023-01-09T18:23:57.959Z,2.30
2023-01-09T18:26:25.659Z,2.27
2023-01-09T18:28:57.342Z,2.47
2023-01-09T18:31:27.217Z,2.10
2023-01-09T18:33:56.667Z,2.43
2023-01-09T18:36:29.225Z,3.03
2023-01-09T18:38:57.718Z,2.00
2023-01-09T18:41:25.897Z,1.87
2023-01-09T18:43:58.082Z,2.40
2023-01-09T18:46:26.037Z,2.70
2023-01-09T18:48:53.951Z,2.43
2023-01-09T18:51:22.718Z,2.60
2023-01-09T18:53:51.098Z,2.57
2023-01-09T18:56:19.904Z,2.80
2023-01-09T18:58:48.082Z,2.80
2023-01-09T19:01:17.674Z,2.43
2023-01-09T19:03:46.095Z,2.80
2023-01-09T19:06:13.914Z,2.67
2023-01-09T19:08:41.720Z,2.47
2023-01-09T19:11:09.574Z,2.80
2023-01-09T19:13:38.523Z,2.90
2023-01-09T19:16:08.208Z,2.40
2023-01-09T19:18:39.456Z,2.80
2023-01-09T19:21:12.262Z,3.00
2023-01-09T19:23:41.052Z,3.17
2023-01-09T19:26:10.092Z,3.07
2023-01-09T19:28:42.075Z,2.67
2023-01-09T19:31:09.778Z,3.23
2023-01-09T19:33:39.609Z,2.90
2023-01-09T19:36:08.024Z,3.70
2023-01-09T19:38:35.863Z,3.10
2023-01-09T19:41:09.487Z,3.63
2023-01-09T19:43:39.897Z,3.70
2023-01-09T19:46:09.406Z,3.10
2023-01-09T19:48:39.011Z,3.93
2023-01-09T19:51:08.843Z,3.73
2023-01-09T19:53:37.092Z,3.50
2023-01-09T19:56:09.905Z,4.27
2023-01-09T19:58:37.688Z,3.87
2023-01-09T20:01:12.577Z,3.23
2023-01-09T20:03:42.952Z,3.80
2023-01-09T20:06:14.280Z,3.50
2023-01-09T20:08:42.491Z,3.43
2023-01-09T20:11:10.238Z,4.20
2023-01-09T20:13:38.380Z,4.23
2023-01-09T20:16:07.328Z,4.30
2023-01-09T20:18:36.051Z,3.30
2023-01-09T20:21:05.473Z,3.73
2023-01-09T20:23:34.187Z,3.90
2023-01-09T20:26:03.408Z,3.30
2023-01-09T20:28:31.229Z,4.63
2023-01-09T20:30:58.920Z,3.83
2023-01-09T20:33:26.647Z,4.00
2023-01-09T20:35:54.368Z,3.27
2023-01-09T20:38:25.347Z,3.63
2023-01-09T20:40:53.112Z,3.50
2023-01-09T20:43:20.816Z,3.00
2023-01-09T20:45:48.616Z,3.53
2023-01-09T20:48:16.338Z,4.40
2023-01-09T20:50:44.130Z,3.40
2023-01-09T20:53:11.805Z,2.97
2023-01-09T20:55:41.300Z,3.10
2023-01-09T20:58:09.003Z,3.23
2023-01-09T21:00:36.716Z,3.10
2023-01-09T21:03:05.419Z,2.83
2023-01-09T21:05:33.156Z,3.03
2023-01-09T21:08:00.924Z,3.03
2023-01-09T21:10:28.655Z,3.77
2023-01-09T21:12:57.661Z,3.17
2023-01-09T21:15:25.328Z,3.00
2023-01-09T21:17:53.174Z,2.73
2023-01-09T21:20:20.893Z,3.10
2023-01-09T21:22:49.153Z,3.53
2023-01-09T21:25:17.391Z,2.93
2023-01-09T21:27:45.913Z,3.03
2023-01-09T21:30:15.256Z,3.30
2023-01-09T21:32:42.927Z,3.57
2023-01-09T21:35:10.749Z,2.70
2023-01-09T21:37:38.537Z,2.50
2023-01-09T21:40:08.859Z,2.60
2023-01-09T21:42:54.174Z,2.67
2023-01-09T21:45:40.763Z,3.53
2023-01-09T21:48:08.940Z,3.40
2023-01-09T21:50:37.157Z,3.57
2023-01-09T21:53:05.283Z,4.30
2023-01-09T21:55:32.981Z,3.50
2023-01-09T21:58:01.724Z,3.57
2023-01-09T22:00:30.996Z,3.50
2023-01-09T22:02:58.981Z,4.63
2023-01-09T22:05:27.092Z,3.63
2023-01-09T22:07:56.192Z,3.80
2023-01-09T22:10:23.872Z,4.20
2023-01-09T22:13:10.500Z,4.40
2023-01-09T22:15:41.220Z,3.20
2023-01-09T22:18:08.936Z,4.00
2023-01-09T22:20:37.709Z,4.20
2023-01-09T22:23:05.499Z,3.90
2023-01-09T22:25:33.235Z,4.50
2023-01-09T22:28:01.007Z,4.27
2023-01-09T22:30:28.723Z,4.93
2023-01-09T22:32:57.772Z,4.67
2023-01-09T22:35:25.512Z,5.20
2023-01-09T22:37:53.196Z,4.97
2023-01-09T22:40:20.918Z,5.37
2023-01-09T22:42:52.679Z,4.37
2023-01-09T22:45:20.383Z,4.67
2023-01-09T22:47:48.087Z,4.47
2023-01-09T22:50:17.559Z,4.67
2023-01-09T22:52:45.324Z,4.83
2023-01-09T22:55:12.989Z,5.90
2023-01-09T22:57:40.753Z,5.07
2023-01-09T23:00:10.213Z,4.97
2023-01-09T23:02:38.456Z,4.40
2023-01-09T23:05:07.113Z,5.70
2023-01-09T23:07:37.301Z,5.30
2023-01-09T23:10:06.047Z,5.00
2023-01-09T23:12:34.089Z,4.50
2023-01-09T23:15:01.773Z,4.83
2023-01-09T23:17:29.574Z,5.47
2023-01-09T23:19:57.332Z,4.70
2023-01-09T23:22:25.895Z,4.77
2023-01-09T23:24:54.971Z,4.27
2023-01-09T23:27:22.667Z,4.60
2023-01-09T23:29:50.362Z,4.73
2023-01-09T23:32:18.365Z,4.30
2023-01-09T23:34:47.272Z,4.30
2023-01-09T23:37:15.058Z,4.47
2023-01-09T23:39:42.804Z,4.40
2023-01-09T23:42:29.786Z,4.63
2023-01-09T23:44:57.490Z,4.70
2023-01-09T23:47:25.213Z,3.70
2023-01-09T23:49:52.997Z,3.67
2023-01-09T23:52:20.773Z,4.37
2023-01-09T23:54:48.529Z,4.07
2023-01-09T23:57:17.555Z,4.50
2023-01-09T23:59:45.215Z,4.37
